sensor_id;sensor_type;location;lat;lon;timestamp;temperature;humidity
21580;DHT22;10951;59.656;9.666;2022-08-19T00:01:54;15.70;99.90
21580;DHT22;10951;59.656;9.666;2022-08-19T00:04:24;15.60;99.90
21580;DHT22;10951;59.656;9.666;2022-08-19T00:06:52;15.60;99.90
21580;DHT22;10951;59.656;9.666;2022-08-19T00:09:21;15.50;99.90
21580;DHT22;10951;59.656;9.666;2022-08-19T00:11:49;15.50;99.90
21580;DHT22;10951;59.656;9.666;2022-08-19T00:14:17;15.40;99.90
21580;DHT22;10951;59.656;9.666;2022-08-19T00:16:46;15.30;99.90
21580;DHT22;10951;59.656;9.666;2022-08-19T00:19:15;15.30;99.90
21580;DHT22;10951;59.656;9.666;2022-08-19T00:21:42;15.20;99.90
21580;DHT22;10951;59.656;9.666;2022-08-19T00:24:12;15.20;99.90
21580;DHT22;10951;59.656;9.666;2022-08-19T00:26:39;15.10;99.90
21580;DHT22;10951;59.656;9.666;2022-08-19T00:29:08;15.00;99.90
21580;DHT22;10951;59.656;9.666;2022-08-19T00:31:35;15.00;99.90
21580;DHT22;10951;59.656;9.666;2022-08-19T00:34:03;14.90;99.90
21580;DHT22;10951;59.656;9.666;2022-08-19T00:36:31;14.90;99.90
21580;DHT22;10951;59.656;9.666;2022-08-19T00:39:00;14.80;99.90
21580;DHT22;10951;59.656;9.666;2022-08-19T00:41:27;14.70;99.90
21580;DHT22;10951;59.656;9.666;2022-08-19T00:44:11;14.70;99.90
21580;DHT22;10951;59.656;9.666;2022-08-19T00:46:41;14.60;99.90
21580;DHT22;10951;59.656;9.666;2022-08-19T00:49:55;14.60;99.90
21580;DHT22;10951;59.656;9.666;2022-08-19T00:52:15;14.50;99.90
21580;DHT22;10951;59.656;9.666;2022-08-19T00:54:44;14.50;99.90
21580;DHT22;10951;59.656;9.666;2022-08-19T00:57:20;14.50;99.90
21580;DHT22;10951;59.656;9.666;2022-08-19T00:59:51;14.40;99.90
21580;DHT22;10951;59.656;9.666;2022-08-19T01:02:29;14.40;99.90
21580;DHT22;10951;59.656;9.666;2022-08-19T01:04:56;14.30;99.90
21580;DHT22;10951;59.656;9.666;2022-08-19T01:07:23;14.30;99.90
21580;DHT22;10951;59.656;9.666;2022-08-19T01:09:51;14.20;99.90
21580;DHT22;10951;59.656;9.666;2022-08-19T01:12:19;14.20;99.90
21580;DHT22;10951;59.656;9.666;2022-08-19T01:14:46;14.20;99.90
21580;DHT22;10951;59.656;9.666;2022-08-19T01:17:14;14.20;99.90
21580;DHT22;10951;59.656;9.666;2022-08-19T01:19:43;14.20;99.90
21580;DHT22;10951;59.656;9.666;2022-08-19T01:22:36;14.20;99.90
21580;DHT22;10951;59.656;9.666;2022-08-19T01:25:06;14.20;99.90
21580;DHT22;10951;59.656;9.666;2022-08-19T01:27:43;14.20;99.90
21580;DHT22;10951;59.656;9.666;2022-08-19T01:30:17;14.10;99.90
21580;DHT22;10951;59.656;9.666;2022-08-19T01:32:45;14.10;99.90
21580;DHT22;10951;59.656;9.666;2022-08-19T01:35:12;14.10;99.90
21580;DHT22;10951;59.656;9.666;2022-08-19T01:40:11;14.20;99.90
21580;DHT22;10951;59.656;9.666;2022-08-19T01:42:38;14.10;99.90
21580;DHT22;10951;59.656;9.666;2022-08-19T01:45:06;14.00;99.90
21580;DHT22;10951;59.656;9.666;2022-08-19T01:47:37;13.90;99.90
21580;DHT22;10951;59.656;9.666;2022-08-19T01:50:06;13.80;99.90
21580;DHT22;10951;59.656;9.666;2022-08-19T01:52:36;13.80;99.90
21580;DHT22;10951;59.656;9.666;2022-08-19T01:55:04;13.70;99.90
21580;DHT22;10951;59.656;9.666;2022-08-19T01:57:32;13.60;99.90
21580;DHT22;10951;59.656;9.666;2022-08-19T01:59:59;13.50;99.90
21580;DHT22;10951;59.656;9.666;2022-08-19T02:02:37;13.50;99.90
21580;DHT22;10951;59.656;9.666;2022-08-19T02:05:04;13.50;99.90
21580;DHT22;10951;59.656;9.666;2022-08-19T02:07:37;13.50;99.90
21580;DHT22;10951;59.656;9.666;2022-08-19T02:10:10;13.40;99.90
21580;DHT22;10951;59.656;9.666;2022-08-19T02:12:43;13.40;99.90
21580;DHT22;10951;59.656;9.666;2022-08-19T02:15:13;13.40;99.90
21580;DHT22;10951;59.656;9.666;2022-08-19T02:17:40;13.40;99.90
21580;DHT22;10951;59.656;9.666;2022-08-19T02:20:08;13.30;99.90
21580;DHT22;10951;59.656;9.666;2022-08-19T02:22:35;13.30;99.90
21580;DHT22;10951;59.656;9.666;2022-08-19T02:25:02;13.20;99.90
21580;DHT22;10951;59.656;9.666;2022-08-19T02:27:31;13.20;99.90
21580;DHT22;10951;59.656;9.666;2022-08-19T02:29:58;13.10;99.90
21580;DHT22;10951;59.656;9.666;2022-08-19T02:32:25;13.10;99.90
21580;DHT22;10951;59.656;9.666;2022-08-19T02:34:52;13.00;99.90
21580;DHT22;10951;59.656;9.666;2022-08-19T02:37:19;13.00;99.90
21580;DHT22;10951;59.656;9.666;2022-08-19T02:40:05;12.90;99.90
21580;DHT22;10951;59.656;9.666;2022-08-19T02:42:38;13.00;99.90
21580;DHT22;10951;59.656;9.666;2022-08-19T02:45:07;13.00;99.90
21580;DHT22;10951;59.656;9.666;2022-08-19T02:47:34;13.00;99.90
21580;DHT22;10951;59.656;9.666;2022-08-19T02:50:02;12.90;99.90
21580;DHT22;10951;59.656;9.666;2022-08-19T02:52:29;12.90;99.90
21580;DHT22;10951;59.656;9.666;2022-08-19T02:54:56;12.90;99.90
21580;DHT22;10951;59.656;9.666;2022-08-19T02:57:24;12.80;99.90
21580;DHT22;10951;59.656;9.666;2022-08-19T02:59:51;12.80;99.90
21580;DHT22;10951;59.656;9.666;2022-08-19T03:02:18;12.70;99.90
21580;DHT22;10951;59.656;9.666;2022-08-19T03:04:45;12.70;99.90
21580;DHT22;10951;59.656;9.666;2022-08-19T03:07:14;12.60;99.90
21580;DHT22;10951;59.656;9.666;2022-08-19T03:09:42;12.60;99.90
21580;DHT22;10951;59.656;9.666;2022-08-19T03:12:09;12.50;99.90
21580;DHT22;10951;59.656;9.666;2022-08-19T03:14:37;12.40;99.90
21580;DHT22;10951;59.656;9.666;2022-08-19T03:17:04;12.50;99.90
21580;DHT22;10951;59.656;9.666;2022-08-19T03:19:31;12.50;99.90
21580;DHT22;10951;59.656;9.666;2022-08-19T03:21:58;12.50;99.90
21580;DHT22;10951;59.656;9.666;2022-08-19T03:24:25;12.50;99.90
21580;DHT22;10951;59.656;9.666;2022-08-19T03:26:54;12.40;99.90
21580;DHT22;10951;59.656;9.666;2022-08-19T03:29:27;12.40;99.90
21580;DHT22;10951;59.656;9.666;2022-08-19T03:32:02;12.40;99.90
21580;DHT22;10951;59.656;9.666;2022-08-19T03:34:32;12.30;99.90
21580;DHT22;10951;59.656;9.666;2022-08-19T03:37:04;12.30;99.90
21580;DHT22;10951;59.656;9.666;2022-08-19T03:39:31;12.30;99.90
21580;DHT22;10951;59.656;9.666;2022-08-19T03:41:59;12.30;99.90
21580;DHT22;10951;59.656;9.666;2022-08-19T03:44:49;12.30;99.90
21580;DHT22;10951;59.656;9.666;2022-08-19T03:47:15;12.30;99.90
21580;DHT22;10951;59.656;9.666;2022-08-19T03:49:44;12.30;99.90
21580;DHT22;10951;59.656;9.666;2022-08-19T03:52:11;12.30;99.90
21580;DHT22;10951;59.656;9.666;2022-08-19T03:54:38;12.20;99.90
21580;DHT22;10951;59.656;9.666;2022-08-19T03:57:06;12.20;99.90
21580;DHT22;10951;59.656;9.666;2022-08-19T03:59:35;12.20;99.90
21580;DHT22;10951;59.656;9.666;2022-08-19T04:02:07;12.10;99.90
21580;DHT22;10951;59.656;9.666;2022-08-19T04:04:37;12.10;99.90
21580;DHT22;10951;59.656;9.666;2022-08-19T04:07:04;12.10;99.90
21580;DHT22;10951;59.656;9.666;2022-08-19T04:09:33;12.10;99.90
21580;DHT22;10951;59.656;9.666;2022-08-19T04:12:00;12.10;99.90
21580;DHT22;10951;59.656;9.666;2022-08-19T04:14:29;12.10;99.90
21580;DHT22;10951;59.656;9.666;2022-08-19T04:16:58;12.20;99.90
21580;DHT22;10951;59.656;9.666;2022-08-19T04:19:26;12.20;99.90
21580;DHT22;10951;59.656;9.666;2022-08-19T04:21:54;12.20;99.90
21580;DHT22;10951;59.656;9.666;2022-08-19T04:24:22;12.10;99.90
21580;DHT22;10951;59.656;9.666;2022-08-19T04:26:49;12.20;99.90
21580;DHT22;10951;59.656;9.666;2022-08-19T04:29:21;12.20;99.90
21580;DHT22;10951;59.656;9.666;2022-08-19T04:31:52;12.20;99.90
21580;DHT22;10951;59.656;9.666;2022-08-19T04:34:21;12.20;99.90
21580;DHT22;10951;59.656;9.666;2022-08-19T04:36:50;12.30;99.90
21580;DHT22;10951;59.656;9.666;2022-08-19T04:39:21;12.30;99.90
21580;DHT22;10951;59.656;9.666;2022-08-19T04:41:48;12.30;99.90
21580;DHT22;10951;59.656;9.666;2022-08-19T04:44:35;12.30;99.90
21580;DHT22;10951;59.656;9.666;2022-08-19T04:47:12;12.30;99.90
21580;DHT22;10951;59.656;9.666;2022-08-19T04:49:38;12.40;99.90
21580;DHT22;10951;59.656;9.666;2022-08-19T04:52:05;12.40;99.90
21580;DHT22;10951;59.656;9.666;2022-08-19T04:54:32;12.50;99.90
21580;DHT22;10951;59.656;9.666;2022-08-19T04:57:09;12.50;99.90
21580;DHT22;10951;59.656;9.666;2022-08-19T04:59:38;12.60;99.90
21580;DHT22;10951;59.656;9.666;2022-08-19T05:02:06;12.60;99.90
21580;DHT22;10951;59.656;9.666;2022-08-19T05:04:33;12.60;99.90
21580;DHT22;10951;59.656;9.666;2022-08-19T05:07:01;12.70;99.90
21580;DHT22;10951;59.656;9.666;2022-08-19T05:09:29;12.80;99.90
21580;DHT22;10951;59.656;9.666;2022-08-19T05:12:16;12.80;99.90
21580;DHT22;10951;59.656;9.666;2022-08-19T05:14:44;12.80;99.90
21580;DHT22;10951;59.656;9.666;2022-08-19T05:17:16;12.80;99.90
21580;DHT22;10951;59.656;9.666;2022-08-19T05:19:54;12.90;99.90
21580;DHT22;10951;59.656;9.666;2022-08-19T05:22:40;12.90;99.90
21580;DHT22;10951;59.656;9.666;2022-08-19T05:25:11;13.00;99.90
21580;DHT22;10951;59.656;9.666;2022-08-19T05:27:40;13.00;99.90
21580;DHT22;10951;59.656;9.666;2022-08-19T05:30:09;13.10;99.90
21580;DHT22;10951;59.656;9.666;2022-08-19T05:32:36;13.10;99.90
21580;DHT22;10951;59.656;9.666;2022-08-19T05:35:04;13.10;99.90
21580;DHT22;10951;59.656;9.666;2022-08-19T05:37:31;13.10;99.90
21580;DHT22;10951;59.656;9.666;2022-08-19T05:39:58;13.10;99.90
21580;DHT22;10951;59.656;9.666;2022-08-19T05:42:25;13.10;99.90
21580;DHT22;10951;59.656;9.666;2022-08-19T05:44:53;13.20;99.90
21580;DHT22;10951;59.656;9.666;2022-08-19T05:47:20;13.20;99.90
21580;DHT22;10951;59.656;9.666;2022-08-19T05:49:48;13.20;99.90
21580;DHT22;10951;59.656;9.666;2022-08-19T05:52:16;13.30;99.90
21580;DHT22;10951;59.656;9.666;2022-08-19T05:54:45;13.40;99.90
21580;DHT22;10951;59.656;9.666;2022-08-19T05:57:18;13.40;99.90
21580;DHT22;10951;59.656;9.666;2022-08-19T05:59:46;13.50;99.90
21580;DHT22;10951;59.656;9.666;2022-08-19T06:02:18;13.50;99.90
21580;DHT22;10951;59.656;9.666;2022-08-19T06:04:45;13.60;99.90
21580;DHT22;10951;59.656;9.666;2022-08-19T06:07:12;13.60;99.90
21580;DHT22;10951;59.656;9.666;2022-08-19T06:09:40;13.60;99.90
21580;DHT22;10951;59.656;9.666;2022-08-19T06:12:25;13.60;99.90
21580;DHT22;10951;59.656;9.666;2022-08-19T06:14:55;13.70;99.90
21580;DHT22;10951;59.656;9.666;2022-08-19T06:17:27;13.80;99.90
21580;DHT22;10951;59.656;9.666;2022-08-19T06:19:53;14.00;99.90
21580;DHT22;10951;59.656;9.666;2022-08-19T06:22:20;14.00;99.90
21580;DHT22;10951;59.656;9.666;2022-08-19T06:24:48;14.10;99.90
21580;DHT22;10951;59.656;9.666;2022-08-19T06:27:19;14.10;99.90
21580;DHT22;10951;59.656;9.666;2022-08-19T06:29:46;14.20;99.90
21580;DHT22;10951;59.656;9.666;2022-08-19T06:32:15;14.20;99.90
21580;DHT22;10951;59.656;9.666;2022-08-19T06:34:42;14.30;99.90
21580;DHT22;10951;59.656;9.666;2022-08-19T06:37:11;14.30;99.90
21580;DHT22;10951;59.656;9.666;2022-08-19T06:39:40;14.30;99.90
21580;DHT22;10951;59.656;9.666;2022-08-19T06:42:08;14.40;99.90
21580;DHT22;10951;59.656;9.666;2022-08-19T06:44:40;14.30;99.90
21580;DHT22;10951;59.656;9.666;2022-08-19T06:47:12;14.40;99.90
21580;DHT22;10951;59.656;9.666;2022-08-19T06:49:48;14.50;99.90
21580;DHT22;10951;59.656;9.666;2022-08-19T06:52:15;14.40;99.90
21580;DHT22;10951;59.656;9.666;2022-08-19T06:54:43;14.50;99.90
21580;DHT22;10951;59.656;9.666;2022-08-19T06:57:22;14.50;99.90
21580;DHT22;10951;59.656;9.666;2022-08-19T06:59:49;14.50;99.90
21580;DHT22;10951;59.656;9.666;2022-08-19T07:02:17;14.50;99.90
21580;DHT22;10951;59.656;9.666;2022-08-19T07:04:49;14.50;99.90
21580;DHT22;10951;59.656;9.666;2022-08-19T07:07:20;14.50;99.90
21580;DHT22;10951;59.656;9.666;2022-08-19T07:09:48;14.70;99.90
21580;DHT22;10951;59.656;9.666;2022-08-19T07:12:29;14.80;99.90
21580;DHT22;10951;59.656;9.666;2022-08-19T07:15:03;14.80;99.90
21580;DHT22;10951;59.656;9.666;2022-08-19T07:17:31;14.90;99.90
21580;DHT22;10951;59.656;9.666;2022-08-19T07:20:01;15.00;99.90
21580;DHT22;10951;59.656;9.666;2022-08-19T07:22:39;15.00;99.90
21580;DHT22;10951;59.656;9.666;2022-08-19T07:25:09;15.00;99.90
21580;DHT22;10951;59.656;9.666;2022-08-19T07:27:36;15.00;99.90
21580;DHT22;10951;59.656;9.666;2022-08-19T07:30:06;15.00;99.90
21580;DHT22;10951;59.656;9.666;2022-08-19T07:32:37;15.00;99.90
21580;DHT22;10951;59.656;9.666;2022-08-19T07:35:04;15.10;99.90
21580;DHT22;10951;59.656;9.666;2022-08-19T07:37:32;15.10;99.90
21580;DHT22;10951;59.656;9.666;2022-08-19T07:40:02;15.10;99.90
21580;DHT22;10951;59.656;9.666;2022-08-19T07:42:30;15.20;99.90
21580;DHT22;10951;59.656;9.666;2022-08-19T07:44:58;15.20;99.90
21580;DHT22;10951;59.656;9.666;2022-08-19T07:47:25;15.30;99.90
21580;DHT22;10951;59.656;9.666;2022-08-19T07:50:14;15.40;99.90
21580;DHT22;10951;59.656;9.666;2022-08-19T07:52:41;15.50;99.90
21580;DHT22;10951;59.656;9.666;2022-08-19T07:55:16;15.60;99.90
21580;DHT22;10951;59.656;9.666;2022-08-19T07:58:03;15.80;99.90
21580;DHT22;10951;59.656;9.666;2022-08-19T08:00:32;15.90;99.90
21580;DHT22;10951;59.656;9.666;2022-08-19T08:02:59;16.00;99.90
21580;DHT22;10951;59.656;9.666;2022-08-19T08:05:25;16.10;99.90
21580;DHT22;10951;59.656;9.666;2022-08-19T08:08:11;16.20;99.90
21580;DHT22;10951;59.656;9.666;2022-08-19T08:10:58;16.30;99.90
21580;DHT22;10951;59.656;9.666;2022-08-19T08:13:26;16.40;99.90
21580;DHT22;10951;59.656;9.666;2022-08-19T08:15:54;16.50;99.90
21580;DHT22;10951;59.656;9.666;2022-08-19T08:18:23;16.50;99.90
21580;DHT22;10951;59.656;9.666;2022-08-19T08:20:57;16.50;99.90
21580;DHT22;10951;59.656;9.666;2022-08-19T08:23:24;16.60;99.90
21580;DHT22;10951;59.656;9.666;2022-08-19T08:25:55;16.70;99.90
21580;DHT22;10951;59.656;9.666;2022-08-19T08:28:24;16.90;99.90
21580;DHT22;10951;59.656;9.666;2022-08-19T08:30:55;17.00;99.90
21580;DHT22;10951;59.656;9.666;2022-08-19T08:33:24;17.20;99.90
21580;DHT22;10951;59.656;9.666;2022-08-19T08:36:10;17.40;99.90
21580;DHT22;10951;59.656;9.666;2022-08-19T08:38:38;17.60;99.90
21580;DHT22;10951;59.656;9.666;2022-08-19T08:43:48;18.00;99.90
21580;DHT22;10951;59.656;9.666;2022-08-19T08:46:28;18.10;99.90
21580;DHT22;10951;59.656;9.666;2022-08-19T08:49:05;18.10;99.90
21580;DHT22;10951;59.656;9.666;2022-08-19T08:51:40;18.20;99.90
21580;DHT22;10951;59.656;9.666;2022-08-19T08:54:18;18.20;99.70
21580;DHT22;10951;59.656;9.666;2022-08-19T08:56:47;18.20;99.10
21580;DHT22;10951;59.656;9.666;2022-08-19T09:01:48;18.50;98.20
21580;DHT22;10951;59.656;9.666;2022-08-19T09:04:16;18.60;99.10
21580;DHT22;10951;59.656;9.666;2022-08-19T09:06:48;18.80;99.70
21580;DHT22;10951;59.656;9.666;2022-08-19T09:12:10;19.10;99.80
21580;DHT22;10951;59.656;9.666;2022-08-19T09:17:23;19.50;97.30
21580;DHT22;10951;59.656;9.666;2022-08-19T09:19:58;19.60;96.70
21580;DHT22;10951;59.656;9.666;2022-08-19T09:22:27;19.60;95.20
21580;DHT22;10951;59.656;9.666;2022-08-19T09:24:54;19.70;96.00
21580;DHT22;10951;59.656;9.666;2022-08-19T09:27:23;19.70;96.10
21580;DHT22;10951;59.656;9.666;2022-08-19T09:30:13;19.80;96.80
21580;DHT22;10951;59.656;9.666;2022-08-19T09:32:42;20.00;96.80
21580;DHT22;10951;59.656;9.666;2022-08-19T09:35:09;20.10;96.40
21580;DHT22;10951;59.656;9.666;2022-08-19T09:37:38;20.20;96.50
21580;DHT22;10951;59.656;9.666;2022-08-19T09:40:06;20.20;96.90
21580;DHT22;10951;59.656;9.666;2022-08-19T09:42:37;20.30;96.30
21580;DHT22;10951;59.656;9.666;2022-08-19T09:45:17;20.30;95.50
21580;DHT22;10951;59.656;9.666;2022-08-19T09:47:49;20.40;95.60
21580;DHT22;10951;59.656;9.666;2022-08-19T09:50:20;20.60;96.00
21580;DHT22;10951;59.656;9.666;2022-08-19T09:52:47;20.70;95.00
21580;DHT22;10951;59.656;9.666;2022-08-19T09:55:23;20.90;93.30
21580;DHT22;10951;59.656;9.666;2022-08-19T09:58:01;21.00;93.80
21580;DHT22;10951;59.656;9.666;2022-08-19T10:00:29;21.10;93.50
21580;DHT22;10951;59.656;9.666;2022-08-19T10:02:57;21.20;91.20
21580;DHT22;10951;59.656;9.666;2022-08-19T10:05:24;21.30;91.60
21580;DHT22;10951;59.656;9.666;2022-08-19T10:08:16;21.40;90.40
21580;DHT22;10951;59.656;9.666;2022-08-19T10:10:43;21.60;90.10
21580;DHT22;10951;59.656;9.666;2022-08-19T10:13:15;21.80;89.60
21580;DHT22;10951;59.656;9.666;2022-08-19T10:15:43;21.90;90.90
21580;DHT22;10951;59.656;9.666;2022-08-19T10:18:14;22.00;90.80
21580;DHT22;10951;59.656;9.666;2022-08-19T10:20:46;22.10;87.60
21580;DHT22;10951;59.656;9.666;2022-08-19T10:23:20;22.10;89.30
21580;DHT22;10951;59.656;9.666;2022-08-19T10:25:47;22.10;87.30
21580;DHT22;10951;59.656;9.666;2022-08-19T10:28:14;22.10;87.10
21580;DHT22;10951;59.656;9.666;2022-08-19T10:30:45;22.00;88.30
21580;DHT22;10951;59.656;9.666;2022-08-19T10:33:12;22.00;88.60
21580;DHT22;10951;59.656;9.666;2022-08-19T10:35:40;21.90;89.60
21580;DHT22;10951;59.656;9.666;2022-08-19T10:38:23;21.90;89.10
21580;DHT22;10951;59.656;9.666;2022-08-19T10:40:58;21.90;87.10
21580;DHT22;10951;59.656;9.666;2022-08-19T10:43:25;21.80;86.20
21580;DHT22;10951;59.656;9.666;2022-08-19T10:45:53;21.80;87.90
21580;DHT22;10951;59.656;9.666;2022-08-19T10:48:26;21.80;89.10
21580;DHT22;10951;59.656;9.666;2022-08-19T10:50:54;21.90;89.30
21580;DHT22;10951;59.656;9.666;2022-08-19T10:53:49;22.00;86.30
21580;DHT22;10951;59.656;9.666;2022-08-19T10:56:16;22.00;87.10
21580;DHT22;10951;59.656;9.666;2022-08-19T10:59:03;22.00;86.60
21580;DHT22;10951;59.656;9.666;2022-08-19T11:01:31;22.00;87.10
21580;DHT22;10951;59.656;9.666;2022-08-19T11:04:04;22.10;87.60
21580;DHT22;10951;59.656;9.666;2022-08-19T11:06:31;22.00;85.40
21580;DHT22;10951;59.656;9.666;2022-08-19T11:08:58;22.00;80.80
21580;DHT22;10951;59.656;9.666;2022-08-19T11:11:27;22.00;81.00
21580;DHT22;10951;59.656;9.666;2022-08-19T11:13:55;21.90;81.10
21580;DHT22;10951;59.656;9.666;2022-08-19T11:16:23;21.90;80.70
21580;DHT22;10951;59.656;9.666;2022-08-19T11:18:54;21.90;81.30
21580;DHT22;10951;59.656;9.666;2022-08-19T11:21:28;21.80;80.90
21580;DHT22;10951;59.656;9.666;2022-08-19T11:24:00;21.70;84.00
21580;DHT22;10951;59.656;9.666;2022-08-19T11:26:28;21.80;84.90
21580;DHT22;10951;59.656;9.666;2022-08-19T11:28:57;21.90;84.40
21580;DHT22;10951;59.656;9.666;2022-08-19T11:31:27;22.10;83.60
21580;DHT22;10951;59.656;9.666;2022-08-19T11:33:59;22.20;79.60
21580;DHT22;10951;59.656;9.666;2022-08-19T11:36:27;22.40;78.60
21580;DHT22;10951;59.656;9.666;2022-08-19T11:38:54;22.50;79.90
21580;DHT22;10951;59.656;9.666;2022-08-19T11:41:22;22.60;75.70
21580;DHT22;10951;59.656;9.666;2022-08-19T11:43:51;22.70;77.40
21580;DHT22;10951;59.656;9.666;2022-08-19T11:46:19;22.80;75.50
21580;DHT22;10951;59.656;9.666;2022-08-19T11:48:46;22.90;73.80
21580;DHT22;10951;59.656;9.666;2022-08-19T11:51:17;22.80;71.40
21580;DHT22;10951;59.656;9.666;2022-08-19T11:53:45;22.60;73.40
21580;DHT22;10951;59.656;9.666;2022-08-19T11:56:12;22.60;78.10
21580;DHT22;10951;59.656;9.666;2022-08-19T11:58:39;22.60;75.30
21580;DHT22;10951;59.656;9.666;2022-08-19T12:01:09;22.50;74.30
21580;DHT22;10951;59.656;9.666;2022-08-19T12:03:38;22.50;74.80
21580;DHT22;10951;59.656;9.666;2022-08-19T12:06:06;22.50;73.10
21580;DHT22;10951;59.656;9.666;2022-08-19T12:08:34;22.50;73.90
21580;DHT22;10951;59.656;9.666;2022-08-19T12:11:01;22.50;73.80
21580;DHT22;10951;59.656;9.666;2022-08-19T12:13:29;22.40;76.20
21580;DHT22;10951;59.656;9.666;2022-08-19T12:15:58;22.40;75.50
21580;DHT22;10951;59.656;9.666;2022-08-19T12:18:26;22.40;77.40
21580;DHT22;10951;59.656;9.666;2022-08-19T12:20:53;22.30;75.90
21580;DHT22;10951;59.656;9.666;2022-08-19T12:23:23;22.30;77.40
21580;DHT22;10951;59.656;9.666;2022-08-19T12:25:50;22.30;77.80
21580;DHT22;10951;59.656;9.666;2022-08-19T12:28:25;22.30;79.60
21580;DHT22;10951;59.656;9.666;2022-08-19T12:30:52;22.50;75.70
21580;DHT22;10951;59.656;9.666;2022-08-19T12:33:19;22.60;77.20
21580;DHT22;10951;59.656;9.666;2022-08-19T12:35:50;22.70;77.60
21580;DHT22;10951;59.656;9.666;2022-08-19T12:38:18;22.90;78.30
21580;DHT22;10951;59.656;9.666;2022-08-19T12:40:46;23.00;76.30
21580;DHT22;10951;59.656;9.666;2022-08-19T12:43:14;23.20;75.00
21580;DHT22;10951;59.656;9.666;2022-08-19T12:45:42;23.20;72.70
21580;DHT22;10951;59.656;9.666;2022-08-19T12:48:13;23.20;74.20
21580;DHT22;10951;59.656;9.666;2022-08-19T12:51:05;23.30;71.80
21580;DHT22;10951;59.656;9.666;2022-08-19T12:53:33;23.40;75.90
21580;DHT22;10951;59.656;9.666;2022-08-19T12:56:05;23.50;72.70
21580;DHT22;10951;59.656;9.666;2022-08-19T12:58:37;23.80;71.20
21580;DHT22;10951;59.656;9.666;2022-08-19T13:01:09;23.90;72.60
21580;DHT22;10951;59.656;9.666;2022-08-19T13:03:37;23.90;70.60
21580;DHT22;10951;59.656;9.666;2022-08-19T13:06:07;24.00;71.80
21580;DHT22;10951;59.656;9.666;2022-08-19T13:08:34;24.00;68.50
21580;DHT22;10951;59.656;9.666;2022-08-19T13:11:19;23.90;68.50
21580;DHT22;10951;59.656;9.666;2022-08-19T13:13:49;23.90;69.80
21580;DHT22;10951;59.656;9.666;2022-08-19T13:16:18;23.90;69.90
21580;DHT22;10951;59.656;9.666;2022-08-19T13:18:47;23.90;71.50
21580;DHT22;10951;59.656;9.666;2022-08-19T13:21:14;23.90;70.80
21580;DHT22;10951;59.656;9.666;2022-08-19T13:23:42;23.80;68.80
21580;DHT22;10951;59.656;9.666;2022-08-19T13:26:10;23.80;69.70
21580;DHT22;10951;59.656;9.666;2022-08-19T13:28:39;24.00;69.30
21580;DHT22;10951;59.656;9.666;2022-08-19T13:31:31;24.20;67.80
21580;DHT22;10951;59.656;9.666;2022-08-19T13:34:19;24.30;68.40
21580;DHT22;10951;59.656;9.666;2022-08-19T13:36:47;24.40;68.50
21580;DHT22;10951;59.656;9.666;2022-08-19T13:39:14;24.50;68.50
21580;DHT22;10951;59.656;9.666;2022-08-19T13:41:44;24.50;66.60
21580;DHT22;10951;59.656;9.666;2022-08-19T13:44:15;24.50;66.70
21580;DHT22;10951;59.656;9.666;2022-08-19T13:46:45;24.40;65.00
21580;DHT22;10951;59.656;9.666;2022-08-19T13:49:13;24.40;67.50
21580;DHT22;10951;59.656;9.666;2022-08-19T13:51:42;24.40;65.90
21580;DHT22;10951;59.656;9.666;2022-08-19T13:54:10;24.40;65.40
21580;DHT22;10951;59.656;9.666;2022-08-19T13:56:44;24.40;65.60
21580;DHT22;10951;59.656;9.666;2022-08-19T13:59:12;24.30;64.30
21580;DHT22;10951;59.656;9.666;2022-08-19T14:01:39;24.20;65.40
21580;DHT22;10951;59.656;9.666;2022-08-19T14:04:07;23.90;63.90
21580;DHT22;10951;59.656;9.666;2022-08-19T14:06:34;23.80;64.80
21580;DHT22;10951;59.656;9.666;2022-08-19T14:09:01;23.80;66.30
21580;DHT22;10951;59.656;9.666;2022-08-19T14:11:29;23.90;65.90
21580;DHT22;10951;59.656;9.666;2022-08-19T14:13:56;23.80;63.60
21580;DHT22;10951;59.656;9.666;2022-08-19T14:16:23;23.80;65.70
21580;DHT22;10951;59.656;9.666;2022-08-19T14:18:51;23.70;65.00
21580;DHT22;10951;59.656;9.666;2022-08-19T14:21:21;23.70;64.70
21580;DHT22;10951;59.656;9.666;2022-08-19T14:23:49;23.70;66.30
21580;DHT22;10951;59.656;9.666;2022-08-19T14:26:18;23.70;64.60
21580;DHT22;10951;59.656;9.666;2022-08-19T14:28:45;23.70;63.40
21580;DHT22;10951;59.656;9.666;2022-08-19T14:31:14;23.60;64.90
21580;DHT22;10951;59.656;9.666;2022-08-19T14:33:46;23.60;61.80
21580;DHT22;10951;59.656;9.666;2022-08-19T14:36:13;23.50;61.30
21580;DHT22;10951;59.656;9.666;2022-08-19T14:38:40;23.50;60.90
21580;DHT22;10951;59.656;9.666;2022-08-19T14:41:16;23.40;61.10
21580;DHT22;10951;59.656;9.666;2022-08-19T14:43:45;23.40;63.50
21580;DHT22;10951;59.656;9.666;2022-08-19T14:46:21;23.40;63.90
21580;DHT22;10951;59.656;9.666;2022-08-19T14:48:49;23.40;63.70
21580;DHT22;10951;59.656;9.666;2022-08-19T14:51:19;23.50;64.30
21580;DHT22;10951;59.656;9.666;2022-08-19T14:53:46;23.70;64.10
21580;DHT22;10951;59.656;9.666;2022-08-19T14:56:18;23.80;62.90
21580;DHT22;10951;59.656;9.666;2022-08-19T14:58:45;24.00;63.20
21580;DHT22;10951;59.656;9.666;2022-08-19T15:01:13;24.20;63.40
21580;DHT22;10951;59.656;9.666;2022-08-19T15:03:40;24.30;64.70
21580;DHT22;10951;59.656;9.666;2022-08-19T15:06:08;24.40;61.80
21580;DHT22;10951;59.656;9.666;2022-08-19T15:08:39;24.40;62.60
21580;DHT22;10951;59.656;9.666;2022-08-19T15:11:18;24.20;60.40
21580;DHT22;10951;59.656;9.666;2022-08-19T15:13:48;24.10;60.40
21580;DHT22;10951;59.656;9.666;2022-08-19T15:16:17;24.00;61.20
21580;DHT22;10951;59.656;9.666;2022-08-19T15:18:46;23.90;61.50
21580;DHT22;10951;59.656;9.666;2022-08-19T15:21:14;23.70;62.10
21580;DHT22;10951;59.656;9.666;2022-08-19T15:23:54;23.60;61.30
21580;DHT22;10951;59.656;9.666;2022-08-19T15:26:21;23.70;63.20
21580;DHT22;10951;59.656;9.666;2022-08-19T15:28:48;23.80;60.40
21580;DHT22;10951;59.656;9.666;2022-08-19T15:31:18;23.90;61.40
21580;DHT22;10951;59.656;9.666;2022-08-19T15:33:55;23.90;59.20
21580;DHT22;10951;59.656;9.666;2022-08-19T15:36:26;23.90;58.90
21580;DHT22;10951;59.656;9.666;2022-08-19T15:38:54;23.90;59.80
21580;DHT22;10951;59.656;9.666;2022-08-19T15:41:25;24.00;62.40
21580;DHT22;10951;59.656;9.666;2022-08-19T15:43:56;24.10;60.40
21580;DHT22;10951;59.656;9.666;2022-08-19T15:46:27;24.20;59.80
21580;DHT22;10951;59.656;9.666;2022-08-19T15:48:55;24.30;61.80
21580;DHT22;10951;59.656;9.666;2022-08-19T15:51:27;24.40;58.70
21580;DHT22;10951;59.656;9.666;2022-08-19T15:53:57;24.40;57.70
21580;DHT22;10951;59.656;9.666;2022-08-19T15:56:25;24.30;57.80
21580;DHT22;10951;59.656;9.666;2022-08-19T15:58:53;24.30;57.30
21580;DHT22;10951;59.656;9.666;2022-08-19T16:01:38;24.20;56.50
21580;DHT22;10951;59.656;9.666;2022-08-19T16:04:24;24.00;56.70